createdAt,value
2018-06-10T00:02:05.941Z,17.60
2018-06-10T00:04:36.743Z,17.60
2018-06-10T00:07:07.589Z,17.60
2018-06-10T00:09:38.331Z,17.60
2018-06-10T00:12:15.136Z,17.60
2018-06-10T00:14:46.060Z,17.60
2018-06-10T00:17:17.291Z,17.60
2018-06-10T00:19:48.486Z,17.60
2018-06-10T00:22:19.636Z,17.60
2018-06-10T00:24:50.502Z,17.60
2018-06-10T00:27:25.256Z,17.60
2018-06-10T00:29:56.307Z,17.60
2018-06-10T00:32:27.556Z,17.60
2018-06-10T00:34:58.650Z,17.70
2018-06-10T00:37:29.720Z,17.70
2018-06-10T00:40:00.777Z,17.70
2018-06-10T00:42:32.007Z,17.70
2018-06-10T00:45:03.012Z,17.70
2018-06-10T00:47:33.962Z,17.70
2018-06-10T00:50:05.151Z,17.60
2018-06-10T00:52:36.246Z,17.60
2018-06-10T00:55:07.173Z,17.50
2018-06-10T00:57:38.283Z,17.50
2018-06-10T01:00:09.224Z,17.40
2018-06-10T01:02:40.254Z,17.40
2018-06-10T01:05:11.160Z,17.40
2018-06-10T01:07:42.305Z,17.40
2018-06-10T01:10:13.317Z,17.30
2018-06-10T01:12:44.374Z,17.20
2018-06-10T01:15:15.364Z,17.20
2018-06-10T01:17:46.300Z,17.10
2018-06-10T01:20:17.433Z,17.10
2018-06-10T01:22:47.917Z,17.10
2018-06-10T01:25:18.941Z,17.10
2018-06-10T01:27:50.292Z,17.00
2018-06-10T01:30:21.743Z,17.00
2018-06-10T01:32:53.038Z,17.00
2018-06-10T01:35:24.207Z,16.90
2018-06-10T01:37:55.353Z,16.90
2018-06-10T01:40:26.504Z,16.90
2018-06-10T01:42:57.493Z,16.90
2018-06-10T01:45:28.713Z,16.90
2018-06-10T01:47:59.961Z,17.00
2018-06-10T01:50:31.479Z,17.00
2018-06-10T01:53:02.468Z,17.00
2018-06-10T01:55:33.592Z,17.00
2018-06-10T01:58:04.784Z,17.00
2018-06-10T02:00:36.226Z,17.10
2018-06-10T02:03:07.151Z,17.10
2018-06-10T02:05:38.222Z,17.10
2018-06-10T02:08:09.588Z,17.10
2018-06-10T02:10:40.950Z,17.10
2018-06-10T02:13:12.185Z,17.10
2018-06-10T02:15:43.369Z,17.10
2018-06-10T02:18:14.484Z,17.10
2018-06-10T02:20:45.449Z,17.20
2018-06-10T02:23:16.572Z,17.20
2018-06-10T02:25:47.705Z,17.20
2018-06-10T02:28:20.052Z,17.20
2018-06-10T02:30:51.417Z,17.20
2018-06-10T02:33:23.468Z,17.20
2018-06-10T02:35:54.621Z,17.20
2018-06-10T02:38:26.520Z,17.30
2018-06-10T02:40:57.682Z,17.30
2018-06-10T02:43:28.948Z,17.30
2018-06-10T02:46:00.169Z,17.30
2018-06-10T02:48:31.419Z,17.40
2018-06-10T02:51:02.661Z,17.50
2018-06-10T02:53:33.758Z,17.50
2018-06-10T02:56:04.860Z,17.50
2018-06-10T02:58:36.076Z,17.60
2018-06-10T03:01:07.410Z,17.60
2018-06-10T03:03:38.642Z,17.60
2018-06-10T03:06:09.823Z,17.60
2018-06-10T03:08:41.026Z,17.70
2018-06-10T03:11:12.583Z,17.70
2018-06-10T03:13:43.847Z,17.70
2018-06-10T03:16:14.999Z,17.70
2018-06-10T03:18:46.164Z,17.70
2018-06-10T03:21:17.186Z,17.70
2018-06-10T03:23:48.305Z,17.70
2018-06-10T03:26:19.499Z,17.60
2018-06-10T03:28:50.735Z,17.70
2018-06-10T03:31:21.944Z,17.70
2018-06-10T03:33:53.169Z,17.70
2018-06-10T03:36:24.357Z,17.70
2018-06-10T03:38:55.402Z,17.70
2018-06-10T03:41:26.296Z,17.70
2018-06-10T03:43:57.527Z,17.70
2018-06-10T03:46:28.781Z,17.70
2018-06-10T03:49:00.033Z,17.80
2018-06-10T03:51:31.063Z,17.80
2018-06-10T03:54:02.185Z,17.80
2018-06-10T03:56:34.035Z,17.90
2018-06-10T03:59:05.207Z,17.90
2018-06-10T04:01:36.394Z,18.00
2018-06-10T04:04:07.514Z,18.00
2018-06-10T04:06:38.841Z,18.10
2018-06-10T04:09:10.245Z,18.20
2018-06-10T04:11:41.824Z,18.30
2018-06-10T04:14:13.261Z,18.60
2018-06-10T04:16:44.635Z,18.80
2018-06-10T04:19:15.909Z,19.30
2018-06-10T04:21:47.053Z,19.70
2018-06-10T04:24:18.358Z,20.00
2018-06-10T04:26:51.589Z,20.20
2018-06-10T04:29:24.599Z,20.30
2018-06-10T04:31:56.074Z,20.40
2018-06-10T04:34:27.600Z,20.50
2018-06-10T04:36:59.217Z,20.80
2018-06-10T04:39:30.502Z,21.20
2018-06-10T04:42:01.651Z,21.50
2018-06-10T04:47:04.435Z,22.60
2018-06-10T04:49:36.700Z,23.30
2018-06-10T04:52:07.765Z,23.80
2018-06-10T04:54:38.852Z,24.40
2018-06-10T04:57:10.009Z,24.90
2018-06-10T04:59:41.134Z,25.40
2018-06-10T05:02:12.513Z,25.80
2018-06-10T05:04:43.686Z,26.20
2018-06-10T05:07:15.246Z,26.50
2018-06-10T05:09:46.349Z,26.70
2018-06-10T05:12:17.614Z,26.90
2018-06-10T05:14:48.923Z,27.00
2018-06-10T05:17:20.539Z,27.10
2018-06-10T05:19:51.954Z,27.20
2018-06-10T05:22:22.933Z,27.30
2018-06-10T05:24:54.166Z,27.00
2018-06-10T05:27:25.716Z,26.60
2018-06-10T05:29:57.046Z,26.30
2018-06-10T05:32:28.309Z,25.90
2018-06-10T05:34:59.519Z,25.50
2018-06-10T05:37:30.693Z,25.20
2018-06-10T05:40:02.159Z,24.90
2018-06-10T05:42:33.525Z,24.70
2018-06-10T05:45:05.083Z,24.60
2018-06-10T05:47:36.524Z,24.60
2018-06-10T05:50:07.819Z,24.70
2018-06-10T05:52:39.875Z,24.70
2018-06-10T05:55:11.327Z,24.90
2018-06-10T05:57:42.550Z,25.20
2018-06-10T06:00:12.774Z,25.40
2018-06-10T06:02:42.919Z,25.50
2018-06-10T06:05:13.607Z,25.60
2018-06-10T06:07:44.574Z,25.60
2018-06-10T06:10:15.200Z,25.60
2018-06-10T06:12:46.116Z,25.60
2018-06-10T06:15:16.817Z,25.80
2018-06-10T06:17:47.536Z,26.10
2018-06-10T06:20:18.199Z,26.40
2018-06-10T06:22:48.955Z,26.70
2018-06-10T06:25:19.667Z,27.00
2018-06-10T06:27:50.364Z,27.50
2018-06-10T06:30:21.138Z,27.80
2018-06-10T06:32:51.911Z,28.00
2018-06-10T06:35:22.676Z,28.20
2018-06-10T06:37:53.382Z,28.40
2018-06-10T06:40:24.226Z,28.40
2018-06-10T06:49:12.620Z,28.40
2018-06-10T06:51:43.439Z,28.40
2018-06-10T06:54:14.145Z,28.40
2018-06-10T06:56:44.903Z,28.40
2018-06-10T06:59:15.625Z,28.50
2018-06-10T07:01:46.435Z,28.70
2018-06-10T07:04:17.161Z,28.80
2018-06-10T07:06:47.821Z,28.90
2018-06-10T07:09:18.553Z,29.00
2018-06-10T07:11:49.228Z,29.30
2018-06-10T07:14:19.991Z,29.40
2018-06-10T07:16:50.595Z,29.50
2018-06-10T07:19:21.366Z,29.60
2018-06-10T07:21:52.119Z,29.70
2018-06-10T07:24:22.893Z,29.80
2018-06-10T07:26:53.598Z,30.00
2018-06-10T07:29:24.304Z,30.00
2018-06-10T07:31:55.072Z,30.00
2018-06-10T07:34:25.747Z,29.90
2018-06-10T07:36:56.524Z,29.70
2018-06-10T07:39:27.259Z,29.60
2018-06-10T07:41:58.027Z,29.50
2018-06-10T07:44:28.729Z,29.50
2018-06-10T07:46:59.412Z,29.50
2018-06-10T07:49:30.185Z,29.50
2018-06-10T07:52:00.924Z,29.50
2018-06-10T07:54:31.636Z,29.40
2018-06-10T07:57:02.381Z,29.30
2018-06-10T07:59:33.058Z,29.20
2018-06-10T08:02:03.844Z,29.00
2018-06-10T08:04:34.535Z,28.90
2018-06-10T08:07:05.172Z,28.70
2018-06-10T08:09:35.963Z,28.30
2018-06-10T08:18:09.713Z,27.40
2018-06-10T08:20:40.420Z,27.10
2018-06-10T08:23:11.135Z,27.00
2018-06-10T08:25:41.815Z,26.90
2018-06-10T08:28:12.431Z,26.90
2018-06-10T08:30:43.178Z,27.00
2018-06-10T08:33:13.855Z,27.00
2018-06-10T08:35:44.489Z,27.00
2018-06-10T08:38:15.118Z,27.00
2018-06-10T08:40:45.870Z,26.90
2018-06-10T08:43:16.582Z,26.70
2018-06-10T08:45:47.371Z,26.70
2018-06-10T08:48:18.103Z,26.70
2018-06-10T08:50:48.821Z,26.70
2018-06-10T08:53:19.596Z,26.70
2018-06-10T08:55:50.338Z,26.70
2018-06-10T08:58:21.087Z,26.60
2018-06-10T09:00:51.825Z,26.50
2018-06-10T09:03:22.508Z,26.40
2018-06-10T09:05:53.245Z,26.40
2018-06-10T09:08:24.051Z,26.40
2018-06-10T09:10:54.701Z,26.60
2018-06-10T09:13:25.453Z,26.70
2018-06-10T09:15:56.119Z,26.80
2018-06-10T09:18:26.904Z,26.90
2018-06-10T09:20:57.575Z,27.00
2018-06-10T09:23:28.246Z,26.90
2018-06-10T09:25:58.894Z,27.00
2018-06-10T09:28:29.642Z,27.00
2018-06-10T09:31:00.371Z,27.00
2018-06-10T09:33:31.203Z,27.00
2018-06-10T09:36:01.776Z,27.10
2018-06-10T09:38:32.592Z,27.30
2018-06-10T09:41:03.300Z,27.50
2018-06-10T09:43:34.136Z,27.80
2018-06-10T09:46:04.880Z,27.90
2018-06-10T09:48:35.601Z,28.10
2018-06-10T09:51:06.401Z,28.20
2018-06-10T09:53:37.195Z,28.20
2018-06-10T09:56:25.336Z,28.10
2018-06-10T09:58:56.086Z,27.80
2018-06-10T10:01:27.048Z,27.70
2018-06-10T10:03:57.727Z,27.60
2018-06-10T10:06:28.394Z,27.60
2018-06-10T10:08:59.117Z,27.70
2018-06-10T10:11:29.780Z,27.80
2018-06-10T10:14:00.674Z,27.90
2018-06-10T10:16:31.323Z,28.00
2018-06-10T10:19:02.004Z,28.10
2018-06-10T10:21:32.772Z,28.20
2018-06-10T10:24:04.469Z,28.30
2018-06-10T10:26:35.204Z,28.40
2018-06-10T10:29:05.973Z,28.50
2018-06-10T10:31:36.674Z,28.40
2018-06-10T10:34:07.411Z,28.50
2018-06-10T10:36:38.183Z,28.50
2018-06-10T10:39:09.100Z,28.60
2018-06-10T10:41:39.870Z,28.60
2018-06-10T10:44:10.629Z,28.70
2018-06-10T10:46:41.364Z,28.90
2018-06-10T10:49:12.116Z,29.00
2018-06-10T10:51:42.778Z,29.20
2018-06-10T10:54:13.475Z,29.30
2018-06-10T10:56:44.192Z,29.30
2018-06-10T10:59:14.852Z,29.20
2018-06-10T11:01:45.500Z,29.00
2018-06-10T11:04:16.275Z,29.10
2018-06-10T11:06:46.936Z,29.30
2018-06-10T11:09:17.691Z,29.40
2018-06-10T11:11:48.392Z,29.60
2018-06-10T11:14:19.018Z,29.60
2018-06-10T11:16:49.820Z,29.60
2018-06-10T11:19:20.448Z,29.70
2018-06-10T11:21:51.186Z,29.70
2018-06-10T11:24:21.831Z,29.80
2018-06-10T11:26:52.549Z,30.10
2018-06-10T11:29:23.267Z,30.40
2018-06-10T11:31:53.930Z,30.60
2018-06-10T11:34:24.697Z,30.60
2018-06-10T11:36:55.340Z,30.40
2018-06-10T11:39:26.113Z,30.10
2018-06-10T11:41:56.887Z,30.00
2018-06-10T11:44:27.538Z,30.20
2018-06-10T11:46:58.297Z,30.20
2018-06-10T11:49:29.058Z,30.00
2018-06-10T11:51:59.806Z,29.90
2018-06-10T11:54:30.500Z,29.90
2018-06-10T11:57:01.260Z,30.00
2018-06-10T11:59:32.008Z,30.10
2018-06-10T12:02:02.776Z,30.40
2018-06-10T12:04:33.547Z,30.80
2018-06-10T12:07:04.149Z,31.30
2018-06-10T12:09:34.779Z,31.70
2018-06-10T12:12:05.438Z,31.80
2018-06-10T12:14:36.175Z,31.80
2018-06-10T12:17:06.848Z,31.90
2018-06-10T12:19:37.553Z,32.00
2018-06-10T12:22:08.279Z,31.90
2018-06-10T12:24:38.960Z,31.70
2018-06-10T12:27:09.760Z,31.40
2018-06-10T12:29:40.414Z,30.80
2018-06-10T12:32:11.091Z,30.40
2018-06-10T12:34:41.785Z,30.00
2018-06-10T12:37:12.468Z,30.00
2018-06-10T12:39:43.243Z,30.30
2018-06-10T12:42:13.898Z,30.60
2018-06-10T12:44:44.736Z,31.10
2018-06-10T12:47:15.423Z,31.40
2018-06-10T12:49:46.075Z,31.20
2018-06-10T12:52:16.734Z,30.70
2018-06-10T12:54:47.469Z,30.40
2018-06-10T12:57:18.099Z,30.30
2018-06-10T12:59:48.792Z,30.30
2018-06-10T13:02:19.551Z,30.50
2018-06-10T13:04:50.324Z,30.80
2018-06-10T13:07:21.028Z,31.00
2018-06-10T13:09:51.764Z,31.10
2018-06-10T13:12:27.211Z,31.30
2018-06-10T13:14:57.946Z,31.40
2018-06-10T13:20:29.956Z,31.90
2018-06-10T13:26:19.383Z,32.20
2018-06-10T13:28:50.307Z,32.00
2018-06-10T13:31:21.171Z,31.90
2018-06-10T13:33:59.385Z,32.10
2018-06-10T13:36:44.547Z,32.50
2018-06-10T13:39:15.664Z,32.50
2018-06-10T13:41:46.601Z,32.50
2018-06-10T13:44:17.732Z,32.60
2018-06-10T13:50:14.966Z,32.70
2018-06-10T13:52:45.722Z,32.90
2018-06-10T13:55:27.978Z,32.80
2018-06-10T13:57:58.767Z,32.90
2018-06-10T14:00:35.229Z,33.00
2018-06-10T14:03:06.154Z,33.10
2018-06-10T14:05:36.868Z,32.90
2018-06-10T14:08:07.571Z,32.70
2018-06-10T14:10:38.353Z,32.20
2018-06-10T14:16:32.495Z,31.10
2018-06-10T14:19:03.574Z,30.60
2018-06-10T14:21:34.554Z,30.10
2018-06-10T14:24:05.906Z,29.80
2018-06-10T14:26:40.859Z,29.60
2018-06-10T14:29:11.630Z,29.70
2018-06-10T14:31:42.670Z,29.60
2018-06-10T14:34:13.511Z,29.50
2018-06-10T14:36:44.595Z,29.40
2018-06-10T14:45:16.570Z,29.10
2018-06-10T14:47:47.374Z,29.00
2018-06-10T14:50:18.131Z,28.90
2018-06-10T14:52:48.839Z,29.00
2018-06-10T14:55:19.955Z,29.00
2018-06-10T14:57:50.730Z,28.90
2018-06-10T15:00:21.594Z,28.80
2018-06-10T15:12:25.597Z,29.10
2018-06-10T15:15:00.776Z,29.20
2018-06-10T15:17:31.743Z,29.30
2018-06-10T15:20:02.743Z,29.30
2018-06-10T15:22:33.555Z,29.20
2018-06-10T15:25:04.746Z,29.20
2018-06-10T15:27:35.757Z,29.10
2018-06-10T15:30:06.832Z,29.10
2018-06-10T15:32:37.771Z,29.20
2018-06-10T15:35:08.662Z,29.10
2018-06-10T15:37:39.600Z,29.00
2018-06-10T15:40:10.277Z,29.10
2018-06-10T15:42:41.022Z,29.20
2018-06-10T15:45:11.979Z,29.20
2018-06-10T15:47:42.692Z,29.30
2018-06-10T15:50:13.437Z,29.30
2018-06-10T15:55:49.603Z,29.30
2018-06-10T15:58:20.326Z,29.40
2018-06-10T16:00:51.423Z,29.60
2018-06-10T16:03:22.410Z,29.60
2018-06-10T16:08:54.179Z,29.40
2018-06-10T16:11:24.915Z,29.40
2018-06-10T16:13:55.777Z,29.30
2018-06-10T16:16:26.604Z,29.40
2018-06-10T16:18:57.316Z,29.30
2018-06-10T16:23:58.255Z,29.10
2018-06-10T16:26:29.124Z,29.00
2018-06-10T16:28:59.955Z,29.00
2018-06-10T16:31:30.628Z,29.00
2018-06-10T16:34:01.540Z,29.20
2018-06-10T16:36:32.367Z,29.20
2018-06-10T16:39:03.124Z,29.30
2018-06-10T16:41:33.723Z,29.50
2018-06-10T16:44:04.420Z,29.90
2018-06-10T16:46:35.240Z,30.90
2018-06-10T16:49:05.839Z,31.70
2018-06-10T16:51:36.594Z,32.00
2018-06-10T16:54:07.453Z,32.40
2018-06-10T16:59:08.367Z,33.30
2018-06-10T17:01:39.558Z,34.30
2018-06-10T17:04:10.520Z,35.20
2018-06-10T17:06:41.520Z,36.40
2018-06-10T17:09:12.471Z,37.10
2018-06-10T17:11:42.600Z,37.90
2018-06-10T17:14:12.796Z,38.90
2018-06-10T17:16:43.687Z,40.30
2018-06-10T17:19:14.488Z,41.50
2018-06-10T17:21:45.586Z,41.60
2018-06-10T17:24:16.370Z,41.00
2018-06-10T17:26:47.156Z,41.00
2018-06-10T17:29:17.982Z,41.00
2018-06-10T17:31:48.615Z,40.90
2018-06-10T17:34:19.438Z,41.00
2018-06-10T17:39:57.222Z,41.20
2018-06-10T17:42:28.001Z,42.00
2018-06-10T17:44:59.154Z,42.40
2018-06-10T17:47:29.862Z,42.70
2018-06-10T17:50:00.895Z,42.90
2018-06-10T17:52:31.609Z,43.10
2018-06-10T17:55:02.813Z,42.90
2018-06-10T17:57:34.040Z,42.70
2018-06-10T18:00:04.822Z,41.30
2018-06-10T18:05:05.757Z,37.50
2018-06-10T18:07:36.292Z,36.00
2018-06-10T18:10:07.087Z,34.60
2018-06-10T18:12:37.944Z,33.60
2018-06-10T18:15:13.828Z,33.20
2018-06-10T18:17:44.561Z,33.40
2018-06-10T18:20:15.246Z,33.90
2018-06-10T18:22:45.958Z,34.30
2018-06-10T18:25:16.946Z,34.60
2018-06-10T18:27:47.785Z,34.70
2018-06-10T18:30:18.665Z,34.50
2018-06-10T18:32:49.354Z,33.80
2018-06-10T18:35:20.263Z,32.90
2018-06-10T18:37:51.268Z,31.90
2018-06-10T18:40:21.946Z,31.10
2018-06-10T18:42:52.579Z,30.30
2018-06-10T18:45:23.511Z,29.60
2018-06-10T18:47:54.256Z,28.90
2018-06-10T18:53:43.575Z,28.00
2018-06-10T18:56:14.504Z,27.50
2018-06-10T18:58:45.225Z,27.10
2018-06-10T19:01:15.924Z,26.80
2018-06-10T19:03:46.634Z,26.60
2018-06-10T19:09:12.108Z,26.30
2018-06-10T19:11:42.746Z,26.00
2018-06-10T19:14:13.423Z,25.80
2018-06-10T19:16:44.367Z,25.70
2018-06-10T19:19:15.371Z,25.60
2018-06-10T19:21:45.632Z,25.40
2018-06-10T19:26:51.353Z,25.20
2018-06-10T19:29:22.197Z,25.00
2018-06-10T19:31:52.939Z,24.80
2018-06-10T19:34:23.617Z,24.70
2018-06-10T19:42:48.874Z,24.40
2018-06-10T19:45:19.980Z,24.20
2018-06-10T19:47:50.654Z,24.20
2018-06-10T19:50:32.860Z,24.20
2018-06-10T19:53:03.929Z,24.10
2018-06-10T19:55:35.231Z,24.10
2018-06-10T19:58:06.314Z,24.10
2018-06-10T20:00:37.399Z,24.10
2018-06-10T20:03:08.723Z,24.00
2018-06-10T20:05:39.732Z,24.00
2018-06-10T20:08:34.565Z,23.90
2018-06-10T20:11:05.675Z,23.80
2018-06-10T20:13:38.031Z,23.60
2018-06-10T20:16:08.880Z,23.50
2018-06-10T20:18:40.171Z,23.40
2018-06-10T20:21:11.005Z,23.40
2018-06-10T20:23:41.739Z,23.40
2018-06-10T20:26:12.548Z,23.40
2018-06-10T20:28:43.276Z,23.40
2018-06-10T20:31:14.049Z,23.40
2018-06-10T20:33:44.804Z,23.40
2018-06-10T20:36:15.611Z,23.30
2018-06-10T20:38:46.221Z,23.30
2018-06-10T20:41:17.089Z,23.20
2018-06-10T20:43:47.829Z,23.20
2018-06-10T20:46:18.590Z,23.10
2018-06-10T20:48:49.466Z,22.90
2018-06-10T20:51:20.318Z,22.70
2018-06-10T20:53:51.122Z,22.70
2018-06-10T20:56:22.006Z,22.70
2018-06-10T20:58:52.747Z,22.60
2018-06-10T21:01:23.652Z,22.50
2018-06-10T21:03:54.597Z,22.30
2018-06-10T21:06:25.836Z,22.30
2018-06-10T21:08:56.603Z,22.20
2018-06-10T21:11:27.328Z,22.20
2018-06-10T21:13:58.148Z,22.10
2018-06-10T21:16:28.877Z,22.10
2018-06-10T21:18:59.681Z,22.10
2018-06-10T21:21:30.399Z,22.00
2018-06-10T21:24:01.083Z,21.90
2018-06-10T21:29:01.919Z,21.90
2018-06-10T21:31:32.731Z,21.90
2018-06-10T21:34:03.435Z,21.90
2018-06-10T21:36:34.130Z,21.90
2018-06-10T21:39:06.907Z,21.90
2018-06-10T21:41:37.724Z,21.80
2018-06-10T21:44:08.501Z,21.80
2018-06-10T21:46:39.304Z,21.70
2018-06-10T21:49:09.996Z,21.60
2018-06-10T21:51:40.731Z,21.60
2018-06-10T21:54:11.644Z,21.50
2018-06-10T21:56:42.409Z,21.50
2018-06-10T21:59:13.188Z,21.50
2018-06-10T22:01:43.987Z,21.50
2018-06-10T22:04:14.743Z,21.40
2018-06-10T22:06:45.569Z,21.40
2018-06-10T22:09:16.336Z,21.30
2018-06-10T22:11:46.990Z,21.30
2018-06-10T22:14:18.128Z,21.20
2018-06-10T22:19:19.634Z,21.20
2018-06-10T22:21:50.679Z,21.20
2018-06-10T22:24:21.850Z,21.30
2018-06-10T22:26:52.672Z,21.30
2018-06-10T22:29:23.454Z,21.30
2018-06-10T22:31:54.502Z,21.20
2018-06-10T22:34:25.603Z,21.10
2018-06-10T22:36:56.492Z,21.10
2018-06-10T22:41:57.794Z,20.90
2018-06-10T22:44:29.116Z,20.80
2018-06-10T22:46:59.862Z,20.80
2018-06-10T22:49:30.783Z,20.70
2018-06-10T22:52:01.894Z,20.70
2018-06-10T22:54:43.730Z,20.80
2018-06-10T22:57:14.561Z,20.80
2018-06-10T22:59:46.808Z,20.80
2018-06-10T23:02:18.009Z,20.70
2018-06-10T23:04:49.187Z,20.70
2018-06-10T23:07:20.349Z,20.70
2018-06-10T23:09:51.641Z,20.70
2018-06-10T23:12:22.415Z,20.70
2018-06-10T23:14:53.535Z,20.70
2018-06-10T23:17:24.761Z,20.70
2018-06-10T23:19:56.076Z,20.70
2018-06-10T23:22:27.287Z,20.60
2018-06-10T23:24:58.512Z,20.60
2018-06-10T23:27:29.491Z,20.50
2018-06-10T23:30:00.199Z,20.50
2018-06-10T23:32:30.907Z,20.40
2018-06-10T23:35:02.096Z,20.40
2018-06-10T23:37:32.914Z,20.30
2018-06-10T23:40:03.980Z,20.20
2018-06-10T23:42:34.711Z,20.20
2018-06-10T23:45:05.876Z,20.20
2018-06-10T23:50:07.684Z,20.20
2018-06-10T23:52:38.830Z,20.20
2018-06-10T23:58:10.344Z,20.20
